createdAt,value
2022-09-28T00:00:25.563Z,97431.09
2022-09-28T00:02:57.531Z,97415.91
2022-09-28T00:05:27.006Z,97413.25
2022-09-28T00:07:55.850Z,97397.38
2022-09-28T00:10:24.140Z,97393.78
2022-09-28T00:12:55.512Z,97383.63
2022-09-28T00:15:24.689Z,97376.22
2022-09-28T00:17:52.507Z,97364.78
2022-09-28T00:20:22.250Z,97364.47
2022-09-28T00:22:50.119Z,97382.75
2022-09-28T00:25:18.022Z,97368.84
2022-09-28T00:30:36.354Z,97350.56
2022-09-28T00:42:17.639Z,97333.03
2022-09-28T00:50:58.696Z,97317.63
2022-09-28T00:53:31.384Z,97304.94
2022-09-28T00:56:05.470Z,97302.75
2022-09-28T00:58:36.863Z,97294.41
2022-09-28T01:03:48.644Z,97281.88
2022-09-28T01:06:22.850Z,97279.53
2022-09-28T01:09:08.600Z,97269.06
2022-09-28T01:11:39.980Z,97264.25
2022-09-28T01:14:17.806Z,97269.97
2022-09-28T01:16:54.912Z,97264.72
2022-09-28T01:20:19.394Z,97254.50
2022-09-28T01:23:33.006Z,97251.41
2022-09-28T01:26:26.183Z,97261.47
2022-09-28T01:48:08.547Z,97214.50
2022-09-28T01:50:41.889Z,97203.84
2022-09-28T01:53:14.961Z,97193.63
2022-09-28T01:55:49.041Z,97186.69
2022-09-28T01:58:24.154Z,97190.84
2022-09-28T02:00:57.539Z,97196.41
2022-09-28T02:03:33.129Z,97197.81
2022-09-28T02:06:10.007Z,97189.00
2022-09-28T02:08:44.941Z,97193.63
2022-09-28T05:07:49.257Z,97022.88
2022-09-28T05:10:20.114Z,97030.13
2022-09-28T05:12:50.627Z,97023.03
2022-09-28T05:15:19.449Z,97016.63
2022-09-28T05:17:51.945Z,97019.91
2022-09-28T05:20:42.819Z,97022.69
2022-09-28T05:23:39.945Z,97030.75
2022-09-28T05:26:18.902Z,97029.47
2022-09-28T05:32:02.092Z,97015.75
2022-09-28T06:13:50.147Z,97042.91
2022-09-28T08:55:56.660Z,97282.41
2022-09-28T09:04:43.627Z,97281.69
2022-09-28T09:07:52.314Z,97286.22
2022-09-28T09:10:39.619Z,97285.34
2022-09-28T09:13:33.553Z,97294.28
2022-09-28T09:16:12.546Z,97289.19
2022-09-28T09:19:17.842Z,97296.06
2022-09-28T09:22:15.294Z,97293.47
2022-09-28T09:24:50.583Z,97307.00
2022-09-28T09:27:39.175Z,97307.34
2022-09-28T09:30:11.975Z,97295.50
2022-09-28T09:32:57.559Z,97307.84
2022-09-28T09:35:46.011Z,97302.50
2022-09-28T09:38:47.447Z,97307.34
2022-09-28T09:41:47.133Z,97308.16
2022-09-28T09:45:04.769Z,97317.56
2022-09-28T09:48:04.317Z,97310.81
2022-09-28T09:50:39.385Z,97314.28
2022-09-28T09:53:17.861Z,97314.66
2022-09-28T09:55:48.021Z,97313.50
2022-09-28T09:58:39.590Z,97317.75
2022-09-28T10:01:21.022Z,97320.69
2022-09-28T10:04:22.135Z,97330.59
2022-09-28T10:06:53.975Z,97331.94
2022-09-28T10:09:25.822Z,97323.34
2022-09-28T10:11:54.693Z,97321.13
2022-09-28T10:14:24.472Z,97319.34
2022-09-28T10:17:02.625Z,97324.81
2022-09-28T10:19:50.693Z,97322.56
2022-09-28T10:22:36.953Z,97320.75
2022-09-28T10:25:13.616Z,97325.00
2022-09-28T10:27:45.997Z,97321.75
2022-09-28T10:30:18.850Z,97331.06
2022-09-28T10:32:48.755Z,97333.75
2022-09-28T10:35:28.263Z,97325.38
2022-09-28T10:38:04.635Z,97323.63
2022-09-28T10:40:55.379Z,97333.28
2022-09-28T10:43:34.626Z,97339.19
2022-09-28T10:46:10.194Z,97343.72
2022-09-28T10:48:53.807Z,97339.81
2022-09-28T10:51:45.131Z,97348.94
2022-09-28T10:54:19.739Z,97343.31
2022-09-28T10:56:52.047Z,97341.84
2022-09-28T10:59:46.827Z,97343.50
2022-09-28T11:02:37.515Z,97348.94
2022-09-28T11:05:22.052Z,97346.91
2022-09-28T11:07:52.707Z,97341.72
2022-09-28T11:15:07.370Z,97335.03
2022-09-28T11:17:38.763Z,97333.22
2022-09-28T11:20:30.630Z,97337.13
2022-09-28T11:23:18.930Z,97332.34
2022-09-28T11:25:58.346Z,97342.31
2022-09-28T11:28:32.680Z,97330.94
2022-09-28T11:31:03.961Z,97322.38
2022-09-28T11:33:37.639Z,97338.94
2022-09-28T11:36:46.656Z,97333.97
2022-09-28T11:39:27.627Z,97326.00
2022-09-28T11:42:16.135Z,97334.91
2022-09-28T11:44:47.867Z,97330.47
2022-09-28T11:47:33.952Z,97336.84
2022-09-28T11:50:07.607Z,97337.03
2022-09-28T11:52:44.602Z,97332.56
2022-09-28T11:55:23.546Z,97333.28
2022-09-28T11:57:58.045Z,97342.22
2022-09-28T12:00:26.202Z,97338.69
2022-09-28T12:03:06.990Z,97339.81
2022-09-28T12:05:38.446Z,97348.28
2022-09-28T12:08:14.583Z,97351.34
2022-09-28T12:11:07.491Z,97354.41
2022-09-28T12:13:59.603Z,97353.28
2022-09-28T12:17:00.926Z,97351.88
2022-09-28T12:19:26.397Z,97351.53
2022-09-28T12:21:59.283Z,97345.97
2022-09-28T12:24:32.087Z,97349.69
2022-09-28T12:27:06.224Z,97342.16
2022-09-28T12:29:47.515Z,97342.22
2022-09-28T12:32:25.117Z,97342.81
2022-09-28T12:34:52.894Z,97341.25
2022-09-28T12:37:34.070Z,97350.81
2022-09-28T12:40:22.346Z,97351.97
2022-09-28T12:43:05.307Z,97343.19
2022-09-28T12:46:10.800Z,97344.31
2022-09-28T12:50:13.720Z,97351.34
2022-09-28T12:52:16.710Z,97345.31
2022-09-28T12:55:01.236Z,97348.09
2022-09-28T12:57:41.911Z,97350.97
2022-09-28T13:00:12.515Z,97341.59
2022-09-28T13:03:01.776Z,97355.63
2022-09-28T13:05:56.834Z,97356.31
2022-09-28T13:08:36.451Z,97368.97
2022-09-28T13:11:15.727Z,97375.72
2022-09-28T13:13:53.004Z,97386.09
2022-09-28T13:16:31.088Z,97376.03
2022-09-28T13:19:08.585Z,97372.66
2022-09-28T13:24:45.216Z,97357.78
2022-09-28T13:27:19.465Z,97354.38
2022-09-28T13:33:52.554Z,97352.81
2022-09-28T13:36:43.458Z,97351.16
2022-09-28T13:39:36.451Z,97353.50
2022-09-28T13:42:05.266Z,97350.00
2022-09-28T13:44:54.251Z,97351.53
2022-09-28T13:47:35.847Z,97350.78
2022-09-28T13:50:22.180Z,97349.03
2022-09-28T13:52:57.960Z,97352.19
2022-09-28T13:55:34.001Z,97357.75
2022-09-28T13:58:05.475Z,97357.63
2022-09-28T14:00:39.688Z,97350.69
2022-09-28T14:03:24.059Z,97353.19
2022-09-28T14:06:22.969Z,97353.00
2022-09-28T14:09:25.881Z,97357.25
2022-09-28T14:11:59.793Z,97356.59
2022-09-28T14:14:51.330Z,97353.97
2022-09-28T14:17:55.541Z,97350.56
2022-09-28T14:20:27.194Z,97354.44
2022-09-28T14:23:29.760Z,97358.84
2022-09-28T14:26:13.594Z,97357.16
2022-09-28T14:28:49.939Z,97356.81
2022-09-28T14:31:26.567Z,97358.25
2022-09-28T14:33:57.852Z,97366.88
2022-09-28T14:36:42.348Z,97366.75
2022-09-28T14:39:45.940Z,97368.06
2022-09-28T14:42:16.663Z,97371.03
2022-09-28T14:45:18.012Z,97369.72
2022-09-28T14:48:04.562Z,97375.34
2022-09-28T14:50:32.425Z,97379.91
2022-09-28T14:53:06.116Z,97378.66
2022-09-28T14:55:43.931Z,97376.28
2022-09-28T14:58:19.637Z,97377.09
2022-09-28T15:00:49.135Z,97380.00
2022-09-28T15:03:18.049Z,97378.59
2022-09-28T15:05:48.244Z,97390.16
2022-09-28T15:08:18.042Z,97382.53
2022-09-28T15:10:49.052Z,97382.72
2022-09-28T15:13:20.781Z,97385.69
2022-09-28T15:15:52.429Z,97381.44
2022-09-28T15:18:48.989Z,97375.25
2022-09-28T15:21:16.908Z,97388.56
2022-09-28T15:23:46.933Z,97391.44
2022-09-28T15:26:27.413Z,97391.13
2022-09-28T15:28:55.928Z,97391.81
2022-09-28T15:31:26.309Z,97391.47
2022-09-28T15:34:12.145Z,97391.59
2022-09-28T15:36:41.742Z,97400.13
2022-09-28T15:39:15.131Z,97401.13
2022-09-28T15:41:46.963Z,97391.19
2022-09-28T15:44:36.619Z,97397.06
2022-09-28T15:47:13.894Z,97397.63
2022-09-28T15:49:47.395Z,97394.75
2022-09-28T15:52:27.761Z,97395.47
2022-09-28T15:54:56.375Z,97398.56
2022-09-28T15:57:35.893Z,97396.44
2022-09-28T16:00:07.011Z,97399.19
2022-09-28T16:02:39.852Z,97410.56
2022-09-28T16:05:35.786Z,97406.75
2022-09-28T16:08:06.342Z,97412.25
2022-09-28T16:10:35.925Z,97406.59
2022-09-28T16:13:17.121Z,97404.03
2022-09-28T16:15:45.388Z,97405.56
2022-09-28T16:18:20.693Z,97418.19
2022-09-28T16:20:51.062Z,97424.47
2022-09-28T16:23:22.851Z,97421.78
2022-09-28T16:25:53.612Z,97419.75
2022-09-28T16:28:51.676Z,97428.06
2022-09-28T16:31:29.269Z,97426.41
2022-09-28T16:33:59.583Z,97427.78
2022-09-28T16:36:29.831Z,97429.50
2022-09-28T16:38:57.712Z,97437.53
2022-09-28T16:41:29.014Z,97427.97
2022-09-28T16:44:01.331Z,97436.06
2022-09-28T16:50:20.642Z,97444.06
2022-09-28T16:53:07.915Z,97446.19
2022-09-28T16:55:40.551Z,97442.63
2022-09-28T16:58:09.337Z,97440.22
2022-09-28T17:00:38.556Z,97440.22
2022-09-28T17:03:14.466Z,97441.84
2022-09-28T17:05:42.854Z,97440.69
2022-09-28T17:08:15.693Z,97442.53
2022-09-28T17:11:09.862Z,97441.66
2022-09-28T17:13:36.307Z,97448.03
2022-09-28T17:16:08.444Z,97447.81
2022-09-28T17:18:37.830Z,97451.50
2022-09-28T17:21:07.402Z,97448.09
2022-09-28T17:23:35.274Z,97443.69
2022-09-28T17:26:03.839Z,97446.47
2022-09-28T17:28:34.391Z,97453.91
2022-09-28T17:31:02.389Z,97453.81
2022-09-28T17:33:31.519Z,97447.25
2022-09-28T17:36:01.412Z,97450.25
2022-09-28T17:38:29.426Z,97455.00
2022-09-28T17:40:57.477Z,97464.22
2022-09-28T17:43:25.300Z,97452.53
2022-09-28T17:45:53.206Z,97458.31
2022-09-28T17:48:22.920Z,97463.41
2022-09-28T17:50:52.248Z,97469.25
2022-09-28T17:53:20.049Z,97470.44
2022-09-28T17:55:47.804Z,97476.00
2022-09-28T17:58:17.814Z,97469.91
2022-09-28T18:00:47.228Z,97474.66
2022-09-28T18:03:16.852Z,97479.59
2022-09-28T18:05:45.456Z,97476.94
2022-09-28T18:08:18.455Z,97470.63
2022-09-28T18:10:46.930Z,97482.00
2022-09-28T18:13:14.786Z,97479.06
2022-09-28T18:15:43.130Z,97479.84
2022-09-28T18:18:12.869Z,97483.91
2022-09-28T18:20:42.115Z,97483.00
2022-09-28T18:23:10.009Z,97487.66
2022-09-28T18:25:43.042Z,97486.91
2022-09-28T18:28:29.537Z,97492.81
2022-09-28T18:30:57.668Z,97499.28
2022-09-28T18:33:25.591Z,97499.75
2022-09-28T18:35:54.726Z,97502.06
2022-09-28T18:38:22.619Z,97505.97
2022-09-28T18:40:53.419Z,97502.56
2022-09-28T18:43:21.592Z,97514.66
2022-09-28T18:45:49.722Z,97519.78
2022-09-28T18:48:17.580Z,97521.91
2022-09-28T18:50:45.621Z,97521.91
2022-09-28T18:53:13.450Z,97526.53
2022-09-28T18:55:42.171Z,97523.13
2022-09-28T18:58:12.931Z,97530.22
2022-09-28T19:00:42.194Z,97527.44
2022-09-28T19:03:14.344Z,97533.78
2022-09-28T19:05:43.113Z,97536.72
2022-09-28T19:08:11.168Z,97539.00
2022-09-28T19:10:38.988Z,97540.75
2022-09-28T19:13:06.835Z,97543.94
2022-09-28T19:15:36.182Z,97544.19
2022-09-28T19:18:04.285Z,97534.06
2022-09-28T19:20:33.770Z,97540.72
2022-09-28T19:23:02.092Z,97540.91
2022-09-28T19:25:30.148Z,97537.25
2022-09-28T19:27:57.937Z,97542.69
2022-09-28T19:30:25.840Z,97540.75
2022-09-28T19:32:55.100Z,97537.59
2022-09-28T19:35:22.965Z,97543.44
2022-09-28T19:37:51.462Z,97542.28
2022-09-28T19:40:19.364Z,97553.66
2022-09-28T19:42:47.243Z,97557.84
2022-09-28T19:45:15.126Z,97560.06
2022-09-28T19:47:43.013Z,97571.09
2022-09-28T19:50:12.363Z,97559.09
2022-09-28T19:52:40.185Z,97566.38
2022-09-28T19:55:09.010Z,97566.09
2022-09-28T19:57:36.854Z,97569.09
2022-09-28T20:00:05.274Z,97575.59
2022-09-28T20:02:34.357Z,97577.91
2022-09-28T20:05:02.315Z,97573.41
2022-09-28T20:07:33.382Z,97576.31
2022-09-28T20:10:01.421Z,97573.81
2022-09-28T20:12:29.211Z,97582.06
2022-09-28T20:14:57.055Z,97575.13
2022-09-28T20:17:26.104Z,97572.84
2022-09-28T20:19:53.916Z,97585.09
2022-09-28T20:22:21.809Z,97578.78
2022-09-28T20:24:51.007Z,97588.78
2022-09-28T20:27:19.734Z,97584.41
2022-09-28T20:29:49.867Z,97587.84
2022-09-28T20:32:17.683Z,97596.00
2022-09-28T20:34:45.535Z,97594.84
2022-09-28T20:37:14.042Z,97594.63
2022-09-28T20:39:44.945Z,97601.59
2022-09-28T20:42:15.533Z,97601.63
2022-09-28T20:44:43.904Z,97605.06
2022-09-28T20:47:12.072Z,97614.13
2022-09-28T20:49:39.945Z,97614.56
2022-09-28T20:52:07.810Z,97618.53
2022-09-28T20:54:35.647Z,97614.44
2022-09-28T20:57:17.199Z,97607.84
2022-09-28T20:59:50.861Z,97613.72
2022-09-28T21:02:21.795Z,97608.75
2022-09-28T21:04:49.684Z,97613.47
2022-09-28T21:07:17.549Z,97608.91
2022-09-28T21:09:45.595Z,97617.38
2022-09-28T21:12:15.357Z,97620.47
2022-09-28T21:14:43.139Z,97612.25
2022-09-28T21:17:12.371Z,97616.19
2022-09-28T21:19:40.275Z,97614.00
2022-09-28T21:22:08.266Z,97606.75
2022-09-28T21:24:36.940Z,97606.47
2022-09-28T21:27:05.005Z,97596.31
2022-09-28T21:29:33.429Z,97602.38
2022-09-28T21:32:01.985Z,97609.84
2022-09-28T21:34:31.190Z,97606.84
2022-09-28T21:36:58.987Z,97608.84
2022-09-28T21:39:27.763Z,97603.88
2022-09-28T21:41:55.638Z,97600.47
2022-09-28T21:44:23.444Z,97601.34
2022-09-28T21:46:51.215Z,97601.72
2022-09-28T21:49:19.559Z,97605.72
2022-09-28T21:51:48.767Z,97607.78
2022-09-28T21:54:16.654Z,97604.06
2022-09-28T21:56:44.671Z,97604.94
2022-09-28T21:59:12.525Z,97602.66
2022-09-28T22:01:42.672Z,97608.06
2022-09-28T22:04:11.716Z,97600.34
2022-09-28T22:06:39.779Z,97608.66
2022-09-28T22:09:09.209Z,97605.22
2022-09-28T22:11:37.973Z,97606.78
2022-09-28T22:14:05.783Z,97603.56
2022-09-28T22:16:33.641Z,97599.91
2022-09-28T22:19:01.580Z,97602.28
2022-09-28T22:21:31.860Z,97603.50
2022-09-28T22:24:01.874Z,97608.31
2022-09-28T22:26:33.603Z,97612.09
2022-09-28T22:29:03.445Z,97603.66
2022-09-28T22:31:32.941Z,97603.56
2022-09-28T22:34:01.264Z,97611.13
2022-09-28T22:36:29.850Z,97603.13
2022-09-28T22:38:59.302Z,97600.16
2022-09-28T22:41:28.324Z,97610.31
2022-09-28T22:43:57.703Z,97596.25
2022-09-28T22:46:27.892Z,97600.16
2022-09-28T22:48:57.499Z,97604.66
2022-09-28T22:51:27.077Z,97606.03
2022-09-28T22:53:56.516Z,97600.31
2022-09-28T22:56:24.614Z,97600.53
2022-09-28T22:58:52.464Z,97599.97
2022-09-28T23:01:23.622Z,97599.97
2022-09-28T23:03:53.342Z,97611.50
2022-09-28T23:06:23.831Z,97611.78
2022-09-28T23:08:52.412Z,97610.25
2022-09-28T23:11:20.722Z,97610.88
2022-09-28T23:13:52.523Z,97617.53
2022-09-28T23:16:23.546Z,97618.72
2022-09-28T23:18:51.580Z,97612.50
2022-09-28T23:21:21.112Z,97610.75
2022-09-28T23:23:53.490Z,97611.19
2022-09-28T23:26:22.920Z,97615.03
2022-09-28T23:28:51.092Z,97607.41
2022-09-28T23:31:23.109Z,97606.75
2022-09-28T23:33:52.208Z,97603.91
2022-09-28T23:36:20.180Z,97607.09
2022-09-28T23:38:48.025Z,97605.13
2022-09-28T23:41:15.861Z,97597.59
2022-09-28T23:43:43.705Z,97604.00
2022-09-28T23:46:12.004Z,97610.81
2022-09-28T23:48:41.258Z,97610.41
2022-09-28T23:51:09.154Z,97599.81
2022-09-28T23:53:36.947Z,97599.16
2022-09-28T23:56:04.826Z,97610.84
2022-09-28T23:58:32.791Z,97608.75
